Weches, Texas
Current Conditions -  °F | °C
As of 11:55 AM on Thursday 23 Oct 2014 (Local Time) from KDKR Reporting Station
Clear Clear  
Wind Chill: 73°   Ceiling: Unl
Heat Index: 73°   Visibility: 10mi
Dew Point: 55°   Wind: 3mph
Humidity: 53%   Direction: 10°N
Pressure: 30.19"   Gusts: NA
Location:  31.4982°N, 95.4177°W
Report Text: KDKR 231655Z AUTO 01003KT 10SM CLR 23/13 A3019 RMK AO2
Loading
Personal Weather Stations






























Interactive Weather Map
Tropical Storm Tracking
New forecast layout! Learn more

10-Day Weather Forecast

Advertisements
Track Severe Weather on mobile